Lake Itasca, Minnesota
Current Conditions -  °F | °C
As of 5:34 PM on Monday 22 Dec 2014 (Local Time) from KBJI Reporting Station
Drizzle Drizzle  
Wind Chill: 27°   Ceiling: 800
Heat Index: 34°   Visibility: 7mi
Dew Point: 33°   Wind: 8mph
Humidity: 95%   Direction: 110°ESE
Pressure: 29.64"   Gusts: NA
Location:  47.25°N, 95.21°W
Report Text: KBJI 222334Z AUTO 11007KT 7SM -DZ OVC008 01/00 A2964 RMK AO2 T00100003
Loading
Personal Weather Stations






























Interactive Weather Map New forecast layout! Learn more

10-Day Weather Forecast

Advertisements
Track Severe Weather on mobile